createdAt,value
2023-04-15T06:57:25.554Z,655.0000
2023-04-15T06:57:25.554Z,694.2222
2023-04-15T06:58:27.939Z,662.2143
2023-04-15T06:59:30.894Z,666.6154
2023-04-15T07:00:33.854Z,666.8461
2023-04-15T07:01:36.817Z,664.3077
2023-04-15T07:02:39.813Z,660.0000
2023-04-15T07:03:42.653Z,655.3077
2023-04-15T07:04:45.613Z,646.5385
2023-04-15T07:05:48.578Z,647.2308
2023-04-15T07:06:51.572Z,647.0769
2023-04-15T07:07:54.519Z,646.2308
2023-04-15T07:08:57.420Z,645.8461
2023-04-15T07:10:00.359Z,643.9231
2023-04-15T07:11:03.296Z,637.6154
2023-04-15T07:12:06.232Z,634.9231
2023-04-15T07:13:09.248Z,639.2308
2023-04-15T07:14:12.122Z,643.0000
2023-04-15T07:15:15.077Z,643.4615
2023-04-15T07:16:18.075Z,645.8461
2023-04-15T07:17:21.004Z,647.3846
2023-04-15T07:18:23.910Z,649.3846
2023-04-15T07:19:26.901Z,649.1539
2023-04-15T07:20:29.814Z,648.5385
2023-04-15T07:21:32.771Z,648.3846
2023-04-15T07:22:35.705Z,647.2308
2023-04-15T07:23:38.638Z,647.2308
2023-04-15T07:24:41.750Z,645.0769
2023-04-15T07:25:44.616Z,649.3077
2023-04-15T07:26:47.585Z,656.1539
2023-04-15T07:27:50.533Z,655.9231
2023-04-15T07:28:53.445Z,652.5385
2023-04-15T07:29:56.442Z,641.7692
2023-04-15T07:30:59.424Z,636.6923
2023-04-15T07:32:02.498Z,638.0000
2023-04-15T07:33:05.233Z,640.8461
2023-04-15T07:34:08.193Z,639.1539
2023-04-15T07:35:11.144Z,634.3077
2023-04-15T07:36:14.089Z,630.7692
2023-04-15T07:37:17.105Z,627.6154
2023-04-15T07:38:20.023Z,625.6154
2023-04-15T07:39:22.921Z,625.0769
2023-04-15T07:40:25.868Z,623.1539
2023-04-15T07:41:28.825Z,624.2308
2023-04-15T07:42:31.781Z,621.9231
2023-04-15T07:43:34.733Z,621.0769
2023-04-15T07:44:37.675Z,621.3846
2023-04-15T07:45:40.600Z,620.0000
2023-04-15T07:46:43.668Z,620.0000
2023-04-15T07:47:46.608Z,616.3846
2023-04-15T07:48:49.461Z,614.7692
2023-04-15T07:49:52.421Z,610.3846
2023-04-15T07:50:55.411Z,610.8461
2023-04-15T07:51:58.288Z,607.0000
2023-04-15T07:53:01.251Z,605.0769
2023-04-15T07:54:04.189Z,608.4615
2023-04-15T07:55:07.141Z,606.5385
2023-04-15T07:56:10.110Z,607.4615
2023-04-15T07:57:13.039Z,605.5385
2023-04-15T07:58:15.990Z,602.6154
2023-04-15T07:59:18.927Z,603.1539
2023-04-15T08:00:21.871Z,604.3077
2023-04-15T08:01:24.812Z,604.0000
2023-04-15T08:02:27.979Z,603.3077
2023-04-15T08:03:30.942Z,604.0769
2023-04-15T08:04:33.792Z,602.3846
2023-04-15T08:05:36.616Z,600.9231
2023-04-15T08:06:39.530Z,600.0000
2023-04-15T08:07:42.497Z,598.6154
2023-04-15T08:08:45.414Z,606.9231
2023-04-15T08:09:48.353Z,611.1539
2023-04-15T08:10:52.675Z,609.6154
2023-04-15T08:11:54.271Z,611.3077
2023-04-15T08:12:57.166Z,617.2308
2023-04-15T08:14:00.127Z,616.1539
2023-04-15T08:15:03.074Z,605.5385
2023-04-15T08:16:06.013Z,599.3846
2023-04-15T08:17:08.948Z,594.7692
2023-04-15T08:18:11.889Z,591.3077
2023-04-15T08:19:14.819Z,589.1539
2023-04-15T08:20:17.790Z,586.9231
2023-04-15T08:21:20.708Z,582.7692
2023-04-15T08:22:23.642Z,580.3846
2023-04-15T08:23:26.598Z,582.1539
2023-04-15T08:24:29.577Z,581.8461
2023-04-15T08:25:32.502Z,578.2308
2023-04-15T08:26:35.428Z,578.1539
2023-04-15T08:27:38.382Z,576.3846
2023-04-15T08:28:41.350Z,574.9231
2023-04-15T08:29:44.254Z,574.2308
2023-04-15T08:30:47.212Z,573.6923
2023-04-15T08:31:50.241Z,575.0769
2023-04-15T08:32:53.158Z,575.2308
2023-04-15T08:33:56.043Z,577.7692
2023-04-15T08:34:59.019Z,575.3077
2023-04-15T08:36:01.936Z,572.6923
2023-04-15T08:37:04.886Z,572.8461
2023-04-15T08:38:07.840Z,572.0000
2023-04-15T08:39:10.798Z,574.5385
2023-04-15T08:40:13.834Z,574.3846
2023-04-15T08:41:16.690Z,571.2308
2023-04-15T08:42:19.619Z,571.6154
2023-04-15T08:43:22.563Z,569.3846
2023-04-15T08:44:25.512Z,570.3846
2023-04-15T08:45:28.465Z,571.4615
2023-04-15T08:46:31.413Z,574.1539
2023-04-15T08:47:34.485Z,576.8461
2023-04-15T08:48:37.302Z,579.3846
2023-04-15T08:49:40.238Z,575.0769
2023-04-15T08:50:43.211Z,572.9231
2023-04-15T08:51:46.217Z,569.3846
2023-04-15T08:52:49.081Z,567.3846
2023-04-15T08:53:52.034Z,567.9231
2023-04-15T08:54:55.068Z,568.6154
2023-04-15T08:55:57.958Z,566.5385
2023-04-15T08:57:00.865Z,565.6923
2023-04-15T08:58:03.852Z,565.3077
2023-04-15T08:59:06.783Z,563.1539
2023-04-15T09:00:09.702Z,562.3846
2023-04-15T09:01:12.708Z,560.6923
2023-04-15T09:02:15.617Z,561.2308
2023-04-15T09:03:18.595Z,565.0000
2023-04-15T09:04:21.697Z,566.5385
2023-04-15T09:05:24.461Z,561.0000
2023-04-15T09:06:27.455Z,558.4615
2023-04-15T09:07:30.409Z,557.8461
2023-04-15T09:08:33.289Z,558.6923
2023-04-15T09:09:36.242Z,560.1539
2023-04-15T09:10:39.274Z,562.3846
2023-04-15T09:11:42.151Z,558.6923
2023-04-15T09:12:45.091Z,565.6923
2023-04-15T09:13:48.040Z,568.8461
2023-04-15T09:14:50.975Z,566.0000
2023-04-15T09:15:53.954Z,564.3846
2023-04-15T09:16:57.164Z,563.4615
2023-04-15T09:18:00.089Z,567.2308
2023-04-15T09:19:02.927Z,563.0000
2023-04-15T09:20:05.743Z,560.6923
2023-04-15T09:21:08.680Z,558.0000
2023-04-15T09:22:11.645Z,560.5385
2023-04-15T09:23:14.600Z,561.8461
2023-04-15T09:24:17.530Z,561.7692
2023-04-15T09:25:20.537Z,563.6154
2023-04-15T09:26:23.479Z,559.4615
2023-04-15T09:27:26.375Z,558.7692
2023-04-15T09:28:29.341Z,558.7692
2023-04-15T09:29:32.280Z,561.4615
2023-04-15T09:30:35.250Z,561.0769
2023-04-15T09:31:38.160Z,559.6154
2023-04-15T09:32:41.142Z,563.6154
2023-04-15T09:33:44.061Z,559.6923
2023-04-15T09:34:47.078Z,560.2308
2023-04-15T09:35:50.201Z,558.9231
2023-04-15T09:36:52.901Z,555.2308
2023-04-15T09:37:55.852Z,558.6154
2023-04-15T09:38:58.833Z,562.0000
2023-04-15T09:40:01.787Z,562.3846
2023-04-15T09:41:04.770Z,559.3077
2023-04-15T09:42:07.660Z,563.3846
2023-04-15T09:43:10.704Z,573.3846
2023-04-15T09:44:13.574Z,573.8461
2023-04-15T09:45:16.521Z,576.3077
2023-04-15T09:46:19.475Z,579.4615
2023-04-15T09:47:22.401Z,594.6154
2023-04-15T09:48:25.329Z,599.1539
2023-04-15T09:49:28.323Z,599.0769
2023-04-15T09:50:31.256Z,597.6923
2023-04-15T09:51:34.198Z,592.6154
2023-04-15T09:52:37.115Z,587.8461
2023-04-15T09:53:40.057Z,588.7692
2023-04-15T09:54:43.032Z,587.5385
2023-04-15T09:55:45.963Z,586.0000
2023-04-15T09:56:48.898Z,584.8461
2023-04-15T09:57:51.860Z,583.6923
2023-04-15T09:58:54.802Z,580.9231
2023-04-15T09:59:57.761Z,574.3846
2023-04-15T10:01:00.726Z,578.0769
2023-04-15T10:02:03.651Z,580.7692
2023-04-15T10:03:06.710Z,580.5385
2023-04-15T10:04:09.601Z,580.2308
2023-04-15T10:05:12.527Z,579.2308
2023-04-15T10:06:15.521Z,572.2308
2023-04-15T10:07:18.390Z,572.0000
2023-04-15T10:08:21.422Z,572.7692
2023-04-15T10:09:24.321Z,576.4615
2023-04-15T10:10:27.250Z,575.8461
2023-04-15T10:11:31.567Z,577.7692
2023-04-15T10:12:33.132Z,574.2308
2023-04-15T10:13:36.151Z,571.2308
2023-04-15T10:14:39.119Z,575.4615
2023-04-15T10:15:42.011Z,578.9231
2023-04-15T10:16:44.959Z,587.2308
2023-04-15T10:17:47.884Z,588.6154
2023-04-15T10:18:50.862Z,587.0000
2023-04-15T10:19:53.784Z,586.2308
2023-04-15T10:20:56.757Z,584.3846
2023-04-15T10:21:59.721Z,582.2308
2023-04-15T10:23:02.627Z,587.6923
2023-04-15T10:24:05.571Z,588.0769
2023-04-15T10:25:08.526Z,583.0000
2023-04-15T10:26:11.439Z,583.0769
2023-04-15T10:27:14.452Z,582.6154
2023-04-15T10:28:17.356Z,581.8461
2023-04-15T10:29:20.308Z,584.3077
2023-04-15T10:30:23.266Z,581.6154
2023-04-15T10:31:26.277Z,578.3846
2023-04-15T10:32:29.144Z,578.2308
2023-04-15T10:33:32.128Z,578.6154
2023-04-15T10:34:35.074Z,577.1539
2023-04-15T10:35:37.989Z,576.4615
2023-04-15T10:36:40.932Z,573.4615
2023-04-15T10:37:43.938Z,574.8461
2023-04-15T10:38:46.896Z,578.8461
2023-04-15T10:39:49.792Z,576.6923
2023-04-15T10:40:52.717Z,575.3077
2023-04-15T10:41:55.706Z,573.6923
2023-04-15T10:42:58.616Z,573.5385
2023-04-15T10:44:01.864Z,575.8461
2023-04-15T10:45:04.519Z,576.6923
2023-04-15T10:46:07.485Z,575.1539
2023-04-15T10:47:10.407Z,576.3846
2023-04-15T10:48:13.430Z,578.6923
2023-04-15T10:49:16.324Z,581.0769
2023-04-15T10:50:19.264Z,581.5385
2023-04-15T10:51:22.259Z,580.7692
2023-04-15T10:52:25.159Z,577.0769
2023-04-15T10:53:28.108Z,574.3077
2023-04-15T10:54:31.059Z,575.3077
2023-04-15T10:55:34.036Z,580.6154
2023-04-15T10:56:36.952Z,579.8461
2023-04-15T10:57:39.893Z,583.0000
2023-04-15T10:58:42.853Z,581.9231
2023-04-15T10:59:45.785Z,577.7692
2023-04-15T11:00:48.740Z,579.0000
2023-04-15T11:01:51.751Z,597.7692
2023-04-15T11:02:54.699Z,604.4615
2023-04-15T11:03:57.743Z,607.4615
2023-04-15T11:05:00.555Z,606.6154
2023-04-15T11:06:03.465Z,601.2308
2023-04-15T11:07:06.460Z,602.6154
2023-04-15T11:08:09.345Z,595.7692
2023-04-15T11:09:12.308Z,590.7692
2023-04-15T11:10:15.255Z,586.8461
2023-04-15T11:11:18.260Z,583.3077
2023-04-15T11:12:21.152Z,577.1539
2023-04-15T11:13:24.101Z,574.9231
2023-04-15T11:14:27.035Z,574.2308
2023-04-15T11:15:29.995Z,570.6923
2023-04-15T11:16:33.019Z,575.8461
2023-04-15T11:17:35.935Z,577.9231
2023-04-15T11:18:38.865Z,572.2308
2023-04-15T11:19:41.787Z,573.0769
2023-04-15T11:20:44.731Z,573.2308
2023-04-15T11:21:47.711Z,568.8461
2023-04-15T11:22:50.724Z,566.1539
2023-04-15T11:23:53.605Z,566.0000
2023-04-15T11:24:56.562Z,566.3846
2023-04-15T11:25:59.517Z,567.2308
2023-04-15T11:27:02.415Z,565.2308
2023-04-15T11:28:05.376Z,566.6923
2023-04-15T11:29:08.334Z,565.9231
2023-04-15T11:30:11.258Z,562.5385
2023-04-15T11:31:14.228Z,563.1539
2023-04-15T11:32:17.222Z,559.7692
2023-04-15T11:33:20.181Z,550.3077
2023-04-15T11:34:23.484Z,498.9231
2023-04-15T11:35:26.082Z,484.7692
2023-04-15T11:36:29.036Z,484.0000
2023-04-15T11:37:32.009Z,482.6154
2023-04-15T11:38:34.945Z,481.6923
2023-04-15T11:39:37.890Z,479.9231
2023-04-15T11:40:40.898Z,477.1538
2023-04-15T11:41:43.793Z,475.9231
2023-04-15T11:42:49.499Z,477.2308
2023-04-15T11:43:49.727Z,474.3846
2023-04-15T11:44:52.683Z,474.6923
2023-04-15T11:45:55.717Z,478.1538
2023-04-15T11:46:58.576Z,476.8462
2023-04-15T11:48:01.505Z,475.1538
2023-04-15T11:49:04.473Z,472.5385
2023-04-15T11:50:07.441Z,477.3077
2023-04-15T11:51:10.392Z,480.3846
2023-04-15T11:52:13.337Z,476.1538
2023-04-15T11:53:16.300Z,471.9231
2023-04-15T11:54:19.266Z,471.4615
2023-04-15T11:55:22.202Z,476.7692
2023-04-15T11:56:25.169Z,477.1538
2023-04-15T11:57:28.114Z,483.0000
2023-04-15T11:58:31.056Z,487.6923
2023-04-15T11:59:44.423Z,487.3077
2023-04-15T12:00:36.959Z,484.1538
2023-04-15T12:01:39.968Z,482.6923
2023-04-15T12:02:42.946Z,483.0000
2023-04-15T12:03:46.210Z,482.9231
2023-04-15T12:04:48.910Z,483.8462
2023-04-15T12:05:51.713Z,481.5385
2023-04-15T12:06:54.649Z,482.4615
2023-04-15T12:07:57.661Z,482.4615
2023-04-15T12:09:00.559Z,478.3077
2023-04-15T12:10:03.499Z,477.0000
2023-04-15T12:11:06.453Z,476.7692
2023-04-15T12:12:09.402Z,477.8462
2023-04-15T12:13:12.343Z,477.6154
2023-04-15T12:14:15.341Z,475.3846
2023-04-15T12:15:18.240Z,475.8462
2023-04-15T12:16:21.228Z,476.2308
2023-04-15T12:17:24.176Z,480.0000
2023-04-15T12:18:27.094Z,481.9231
2023-04-15T12:19:30.078Z,483.6923
2023-04-15T12:20:33.002Z,483.1538
2023-04-15T12:21:35.927Z,485.9231
2023-04-15T12:22:38.901Z,484.4615
2023-04-15T12:23:41.855Z,484.2308
2023-04-15T12:24:44.803Z,483.0769
2023-04-15T12:25:47.735Z,484.0769
2023-04-15T12:26:50.692Z,482.5385
2023-04-15T12:27:53.700Z,481.0769
2023-04-15T12:28:56.605Z,480.1538
2023-04-15T12:29:59.650Z,478.0769
2023-04-15T12:31:02.512Z,476.0769
2023-04-15T12:32:05.456Z,479.0769
2023-04-15T12:33:08.454Z,480.5385
2023-04-15T12:34:11.326Z,479.0000
2023-04-15T12:35:14.298Z,480.3077
2023-04-15T12:36:17.265Z,480.4615
2023-04-15T12:37:20.201Z,478.8462
2023-04-15T12:38:23.146Z,477.3846
2023-04-15T12:39:26.830Z,481.3077
2023-04-15T12:40:29.049Z,483.3077
2023-04-15T12:41:32.015Z,483.3077
2023-04-15T12:42:34.946Z,484.7692
2023-04-15T12:43:37.950Z,481.6154
2023-04-15T12:44:40.861Z,482.2308
2023-04-15T12:45:43.790Z,482.2308
2023-04-15T12:46:46.775Z,481.6154
2023-04-15T12:47:49.735Z,479.8462
2023-04-15T12:48:52.644Z,477.0769
2023-04-15T12:49:55.575Z,475.8462
2023-04-15T12:50:58.548Z,478.3846
2023-04-15T12:52:01.488Z,478.1538
2023-04-15T12:53:04.450Z,476.1538
2023-04-15T12:54:07.451Z,477.3077
2023-04-15T12:55:10.356Z,478.5385
2023-04-15T12:56:13.309Z,477.8462
2023-04-15T12:57:16.241Z,478.6154
2023-04-15T12:58:19.204Z,477.9231
2023-04-15T12:59:22.160Z,476.0000
2023-04-15T13:00:25.130Z,480.6154
2023-04-15T13:01:28.078Z,478.6923
2023-04-15T13:02:31.089Z,476.0000
2023-04-15T13:03:34.309Z,477.7692
2023-04-15T13:04:36.966Z,476.4615
2023-04-15T13:05:39.877Z,479.0769
2023-04-15T13:06:42.803Z,479.3846
2023-04-15T13:07:45.769Z,483.5385
2023-04-15T13:08:58.335Z,485.8462
2023-04-15T13:09:51.724Z,482.2308
2023-04-15T13:10:54.583Z,478.4615
2023-04-15T13:11:57.646Z,475.6154
2023-04-15T13:13:00.486Z,478.5385
2023-04-15T13:14:03.585Z,481.3846
2023-04-15T13:15:06.409Z,480.6154
2023-04-15T13:16:09.387Z,480.9231
2023-04-15T13:17:12.282Z,480.0000
2023-04-15T13:18:15.257Z,477.4615
2023-04-15T13:19:18.263Z,476.7692
2023-04-15T13:20:21.175Z,479.3077
2023-04-15T13:21:24.110Z,478.8462
2023-04-15T13:22:27.087Z,479.0769
2023-04-15T13:23:30.015Z,480.5385
2023-04-15T13:24:32.990Z,480.0000
2023-04-15T13:25:35.932Z,478.6154
2023-04-15T13:26:38.913Z,480.7692
2023-04-15T13:27:41.850Z,479.3077
2023-04-15T13:28:44.809Z,475.4615
2023-04-15T13:29:47.760Z,476.7692
2023-04-15T13:30:50.712Z,479.0769
2023-04-15T13:31:53.726Z,478.8462
2023-04-15T13:32:56.645Z,482.1538
2023-04-15T13:33:59.593Z,479.4615
2023-04-15T13:35:02.535Z,481.3846
2023-04-15T13:36:05.554Z,481.2308
2023-04-15T13:37:08.453Z,478.6923
2023-04-15T13:38:11.446Z,477.3077
2023-04-15T13:39:14.361Z,477.9231
2023-04-15T13:40:17.293Z,477.4615
2023-04-15T13:41:20.238Z,477.2308
2023-04-15T13:42:23.208Z,480.3077
2023-04-15T13:43:26.177Z,477.1538
2023-04-15T13:44:29.105Z,478.3846
2023-04-15T13:45:32.132Z,478.0769
2023-04-15T13:46:35.017Z,478.5385
2023-04-15T13:47:38.024Z,481.2308
2023-04-15T13:48:40.946Z,477.3077
2023-04-15T13:49:43.915Z,476.2308
2023-04-15T13:50:46.827Z,482.6923
2023-04-15T13:51:49.796Z,497.6923
2023-04-15T13:52:52.727Z,500.1538
2023-04-15T13:53:55.733Z,500.3846
2023-04-15T13:55:07.050Z,497.4615
2023-04-15T13:56:01.639Z,494.9231
2023-04-15T13:57:04.571Z,491.5385
2023-04-15T13:58:07.517Z,488.6154
2023-04-15T13:59:10.470Z,485.8462
2023-04-15T14:00:13.413Z,482.8462
2023-04-15T14:01:16.421Z,484.0769
2023-04-15T14:02:19.442Z,485.1538
2023-04-15T14:03:22.377Z,485.2308
2023-04-15T14:04:25.342Z,485.0769
2023-04-15T14:05:28.201Z,484.0769
2023-04-15T14:06:31.147Z,485.4615
2023-04-15T14:07:34.096Z,483.8462
2023-04-15T14:08:37.056Z,483.3846
2023-04-15T14:09:43.357Z,486.7692
2023-04-15T14:10:43.015Z,485.9231
2023-04-15T14:11:45.943Z,479.9231
2023-04-15T14:12:48.906Z,477.3846
2023-04-15T14:13:51.822Z,476.1538
2023-04-15T14:14:54.789Z,475.1538
2023-04-15T14:15:57.764Z,475.6923
2023-04-15T14:17:00.779Z,477.6154
2023-04-15T14:18:03.699Z,476.8462
2023-04-15T14:19:06.775Z,476.7692
2023-04-15T14:20:09.590Z,480.0769
2023-04-15T14:21:12.544Z,477.0000
2023-04-15T14:22:15.484Z,477.0769
2023-04-15T14:23:18.449Z,478.7692
2023-04-15T14:24:21.398Z,479.7692
2023-04-15T14:25:33.377Z,479.7692
2023-04-15T14:26:27.342Z,481.6154
2023-04-15T14:27:30.281Z,483.1538
2023-04-15T14:28:33.226Z,484.6154
2023-04-15T14:29:36.309Z,485.5385
2023-04-15T14:30:39.224Z,485.6154
2023-04-15T14:31:42.103Z,482.3077
2023-04-15T14:32:45.089Z,481.3846
2023-04-15T14:33:47.995Z,480.7692
2023-04-15T14:34:50.938Z,481.0769
2023-04-15T14:35:53.917Z,482.0000
2023-04-15T14:36:56.866Z,481.0000
2023-04-15T14:37:59.816Z,480.0000
2023-04-15T14:39:02.769Z,481.4615
2023-04-15T14:40:05.742Z,483.0000
2023-04-15T14:41:08.712Z,484.3077
2023-04-15T14:42:11.627Z,483.3077
2023-04-15T14:43:14.585Z,481.6923
2023-04-15T14:44:17.619Z,483.6923
2023-04-15T14:45:20.509Z,483.9231
2023-04-15T14:46:23.467Z,480.1538
2023-04-15T14:47:26.435Z,481.0000
2023-04-15T14:48:29.379Z,485.5385
2023-04-15T14:49:32.333Z,487.2308
2023-04-15T14:50:35.298Z,487.6154
2023-04-15T14:51:39.656Z,485.0000
2023-04-15T14:52:41.274Z,483.5385
2023-04-15T14:53:44.136Z,483.6154
2023-04-15T14:54:47.107Z,483.0769
2023-04-15T14:55:50.066Z,481.5385
2023-04-15T14:56:53.014Z,479.6154
2023-04-15T14:57:55.958Z,478.6923
2023-04-15T14:58:58.933Z,481.9231
2023-04-15T15:00:01.991Z,486.0000
2023-04-15T15:01:04.860Z,483.3846
2023-04-15T15:02:07.886Z,483.8462
2023-04-15T15:03:10.789Z,482.0000
2023-04-15T15:04:13.776Z,478.8462
2023-04-15T15:05:16.759Z,477.4615
2023-04-15T15:06:19.592Z,476.5385
2023-04-15T15:07:22.544Z,477.6154
2023-04-15T15:08:25.498Z,475.9231
2023-04-15T15:09:28.459Z,478.6923
2023-04-15T15:10:46.745Z,483.8462
2023-04-15T15:11:34.365Z,481.9231
2023-04-15T15:12:37.323Z,482.5385
2023-04-15T15:13:40.274Z,481.0000
2023-04-15T15:14:43.221Z,477.7692
2023-04-15T15:15:46.201Z,477.2308
2023-04-15T15:16:49.115Z,478.9231
2023-04-15T15:17:52.150Z,479.0769
2023-04-15T15:18:55.027Z,479.4615
2023-04-15T15:19:58.021Z,478.0000
2023-04-15T15:21:00.936Z,475.5385
2023-04-15T15:22:03.880Z,475.2308
2023-04-15T15:23:06.864Z,475.6923
2023-04-15T15:24:09.787Z,478.3077
2023-04-15T15:25:12.757Z,478.9231
2023-04-15T15:26:15.756Z,476.6154
2023-04-15T15:27:18.651Z,473.8462
2023-04-15T15:28:21.596Z,477.6923
2023-04-15T15:29:24.558Z,477.0000
2023-04-15T15:30:27.504Z,477.4615
2023-04-15T15:31:30.547Z,476.4615
2023-04-15T15:32:33.440Z,475.6154
2023-04-15T15:33:36.360Z,477.0000
2023-04-15T15:34:39.308Z,475.5385
2023-04-15T15:35:42.299Z,477.0000
2023-04-15T15:36:45.350Z,472.9231
2023-04-15T15:37:48.171Z,473.0000
2023-04-15T15:38:51.282Z,474.7692
2023-04-15T15:39:54.296Z,476.6923
2023-04-15T15:40:57.178Z,477.9231
2023-04-15T15:42:00.096Z,478.6923
2023-04-15T15:43:03.073Z,476.3077
2023-04-15T15:44:05.953Z,475.8462
2023-04-15T15:45:08.971Z,476.6154
2023-04-15T15:46:11.927Z,479.7692
2023-04-15T15:47:14.808Z,482.1538
2023-04-15T15:48:17.750Z,481.3077
2023-04-15T15:49:20.721Z,481.2308
2023-04-15T15:50:23.743Z,481.0000
2023-04-15T15:51:26.660Z,480.0000
2023-04-15T15:52:29.607Z,480.6154
2023-04-15T15:53:32.524Z,481.6923
2023-04-15T15:54:35.479Z,482.4615
2023-04-15T15:55:38.547Z,480.0000
2023-04-15T15:56:41.401Z,480.3846
2023-04-15T15:57:44.362Z,484.6923
2023-04-15T15:58:47.297Z,481.6154
2023-04-15T15:59:51.321Z,480.2308
2023-04-15T16:00:53.221Z,481.9231
2023-04-15T16:01:56.207Z,481.3846
2023-04-15T16:04:02.288Z,480.8462
2023-04-15T16:05:04.993Z,480.6154
2023-04-15T16:06:07.974Z,480.8462
2023-04-15T16:07:10.908Z,481.7692
2023-04-15T16:08:13.865Z,483.0769
2023-04-15T16:09:16.822Z,479.8462
2023-04-15T16:10:19.751Z,481.3846
2023-04-15T16:11:22.713Z,480.6154
2023-04-15T16:12:25.781Z,479.0769
2023-04-15T16:13:28.753Z,479.7692
2023-04-15T16:14:31.556Z,480.8462
2023-04-15T16:15:34.543Z,480.5385
2023-04-15T16:16:37.559Z,479.5385
2023-04-15T16:17:40.429Z,481.1538
2023-04-15T16:18:43.349Z,481.6154
2023-04-15T16:19:58.019Z,483.8462
2023-04-15T16:20:49.281Z,483.1538
2023-04-15T16:21:52.205Z,481.7692
2023-04-15T16:22:55.188Z,482.7692
2023-04-15T16:23:58.138Z,480.8462
2023-04-15T16:25:01.085Z,480.8462
2023-04-15T16:26:04.047Z,482.1538
2023-04-15T16:27:07.004Z,481.0769
2023-04-15T16:28:22.590Z,480.1538
2023-04-15T16:29:12.886Z,480.3846
2023-04-15T16:30:15.917Z,479.6923
2023-04-15T16:31:18.793Z,482.6923
2023-04-15T16:32:21.825Z,480.3077
2023-04-15T16:33:24.728Z,478.2308
2023-04-15T16:34:27.635Z,480.3846
2023-04-15T16:35:31.764Z,479.3846
2023-04-15T16:36:33.523Z,478.3846
2023-04-15T16:37:36.499Z,479.4615
2023-04-15T16:38:39.421Z,479.7692
2023-04-15T16:39:42.363Z,478.0769
2023-04-15T16:40:45.320Z,477.8462
2023-04-15T16:41:48.269Z,477.7692
2023-04-15T16:42:51.277Z,475.8462
2023-04-15T16:43:54.150Z,476.9231
2023-04-15T16:44:57.106Z,477.3077
2023-04-15T16:46:00.076Z,478.6154
2023-04-15T16:47:03.027Z,479.3077
2023-04-15T16:48:05.975Z,480.0000
2023-04-15T16:49:08.870Z,480.4615
2023-04-15T16:50:11.869Z,481.0000
2023-04-15T16:51:14.767Z,478.9231
2023-04-15T16:52:17.707Z,477.8462
2023-04-15T16:53:20.642Z,478.5385
2023-04-15T16:54:23.658Z,479.5385
2023-04-15T16:55:26.570Z,480.6154
2023-04-15T16:56:29.533Z,479.9231
2023-04-15T16:58:00.827Z,480.0000
2023-04-15T16:58:35.426Z,478.9231
2023-04-15T16:59:38.337Z,483.6154
2023-04-15T17:00:41.310Z,483.5385
2023-04-15T17:01:44.235Z,482.9231
2023-04-15T17:02:47.328Z,484.4615
2023-04-15T17:03:50.336Z,484.7692
2023-04-15T17:04:53.067Z,482.1538
2023-04-15T17:05:56.034Z,481.3077
2023-04-15T17:06:58.988Z,485.3077
2023-04-15T17:08:02.005Z,486.7692
2023-04-15T17:09:05.471Z,483.6923
2023-04-15T17:10:07.837Z,480.3846
2023-04-15T17:11:10.847Z,479.9231
2023-04-15T17:12:13.757Z,482.8462
2023-04-15T17:13:16.691Z,483.3077
2023-04-15T17:14:19.698Z,482.2308
2023-04-15T17:15:22.625Z,479.6923
2023-04-15T17:16:25.656Z,479.5385
2023-04-15T17:17:28.540Z,480.4615
2023-04-15T17:18:31.474Z,483.9231
2023-04-15T17:19:34.422Z,485.3077
2023-04-15T17:20:37.372Z,482.3846
2023-04-15T17:21:40.300Z,480.3077
2023-04-15T17:22:43.255Z,477.0000
2023-04-15T17:23:46.228Z,480.5385
2023-04-15T17:24:49.169Z,479.3077
2023-04-15T17:25:52.123Z,482.8462
2023-04-15T17:26:55.078Z,484.2308
2023-04-15T17:27:58.030Z,481.6923
2023-04-15T17:29:01.030Z,481.5385
2023-04-15T17:30:04.047Z,484.3846
2023-04-15T17:31:06.953Z,485.2308
2023-04-15T17:32:09.860Z,484.2308
2023-04-15T17:33:55.303Z,481.6923
2023-04-15T17:35:18.744Z,480.0769
2023-04-15T17:36:21.664Z,481.3846
2023-04-15T17:37:24.620Z,479.1538
2023-04-15T17:38:27.578Z,480.5385
2023-04-15T17:39:30.619Z,478.5385
2023-04-15T17:40:33.483Z,478.9231
2023-04-15T17:41:36.437Z,477.7692
2023-04-15T17:42:39.408Z,480.3846
2023-04-15T17:43:42.351Z,482.4615
2023-04-15T17:44:45.359Z,483.8462
2023-04-15T17:45:48.477Z,483.9231
2023-04-15T17:46:51.268Z,487.0000
2023-04-15T17:47:54.210Z,485.3846
2023-04-15T17:48:57.126Z,484.3846
2023-04-15T17:50:00.151Z,486.0769
2023-04-15T17:51:03.102Z,487.0000
2023-04-15T17:52:06.016Z,485.2308
2023-04-15T17:53:08.963Z,485.6154
2023-04-15T17:54:12.143Z,485.2308
2023-04-15T17:55:14.912Z,486.8462
2023-04-15T17:56:17.933Z,486.4615
2023-04-15T17:57:20.780Z,485.4615
2023-04-15T17:58:23.799Z,479.4615
2023-04-15T17:59:26.722Z,481.6923
2023-04-15T18:00:29.644Z,484.3846
2023-04-15T18:01:32.637Z,485.3846
2023-04-15T18:02:37.410Z,483.1538
2023-04-15T18:03:38.638Z,481.6923
2023-04-15T18:04:41.675Z,481.5385
2023-04-15T18:05:44.397Z,480.5385
2023-04-15T18:06:47.382Z,484.1538
2023-04-15T18:07:50.342Z,487.3846
2023-04-15T18:08:53.287Z,484.6154
2023-04-15T18:09:56.224Z,484.6154
2023-04-15T18:10:59.216Z,485.4615
2023-04-15T18:12:02.281Z,483.8462
2023-04-15T18:13:05.099Z,484.3846
2023-04-15T18:14:08.073Z,486.3077
2023-04-15T18:15:11.009Z,488.4615
2023-04-15T18:16:14.055Z,487.4615
2023-04-15T18:17:16.964Z,487.4615
2023-04-15T18:18:19.875Z,488.6923
2023-04-15T18:19:22.819Z,488.8462
2023-04-15T18:20:25.770Z,491.4615
2023-04-15T18:21:28.752Z,489.6154
2023-04-15T18:22:31.716Z,492.0769
2023-04-15T18:23:34.711Z,493.9231
2023-04-15T18:24:37.680Z,496.1538
2023-04-15T18:25:40.542Z,496.3846
2023-04-15T18:26:43.510Z,492.4615
2023-04-15T18:27:46.495Z,490.3846
2023-04-15T18:28:49.395Z,491.5385
2023-04-15T18:29:52.380Z,490.6154
2023-04-15T18:30:55.310Z,493.6154
2023-04-15T18:31:58.369Z,492.0769
2023-04-15T18:33:01.264Z,491.7692
2023-04-15T18:34:04.346Z,494.3846
2023-04-15T18:35:07.095Z,493.0000
2023-04-15T18:36:10.094Z,491.9231
2023-04-15T18:37:13.005Z,496.7692
2023-04-15T18:38:15.954Z,497.8462
2023-04-15T18:39:18.899Z,495.8462
2023-04-15T18:40:21.849Z,493.8462
2023-04-15T18:41:24.813Z,490.7692
2023-04-15T18:42:27.775Z,488.0769
2023-04-15T18:43:30.726Z,487.1538
2023-04-15T18:44:33.668Z,489.7692
2023-04-15T18:45:36.659Z,486.3846
2023-04-15T18:46:39.565Z,485.8462
2023-04-15T18:47:42.557Z,486.1538
2023-04-15T18:48:45.471Z,486.4615
2023-04-15T18:49:48.500Z,483.9231
2023-04-15T18:50:51.385Z,486.9231
2023-04-15T18:51:54.306Z,491.5385
2023-04-15T18:52:57.273Z,494.6923
2023-04-15T18:54:00.288Z,491.8462
2023-04-15T18:55:03.319Z,488.8462
2023-04-15T18:56:06.302Z,489.6923
2023-04-15T18:57:09.108Z,487.6154
2023-04-15T18:58:12.048Z,491.3846
2023-04-15T18:59:29.151Z,491.0000
2023-04-15T19:00:17.905Z,490.3077
2023-04-15T19:01:20.882Z,490.3846
2023-04-15T19:02:23.905Z,489.4615
2023-04-15T19:03:26.827Z,488.6154
2023-04-15T19:04:29.847Z,489.3077
2023-04-15T19:05:32.667Z,492.1538
2023-04-15T19:06:35.610Z,490.0769
2023-04-15T19:07:38.575Z,491.6154
2023-04-15T19:08:41.787Z,493.4615
2023-04-15T19:09:44.479Z,491.3846
2023-04-15T19:10:47.403Z,489.6154
2023-04-15T19:11:50.440Z,491.4615
2023-04-15T19:12:53.345Z,491.8462
2023-04-15T19:13:56.297Z,492.9231
2023-04-15T19:14:59.228Z,490.3846
2023-04-15T19:16:02.161Z,491.6923
2023-04-15T19:17:05.180Z,492.7692